sensor_id;sensor_type;location;lat;lon;timestamp;P1;durP1;ratioP1;P2;durP2;ratioP2
297;SDS011;133;49.626;9.680;2024-03-22T00:01:48;19.93;;;13.47;;
297;SDS011;133;49.626;9.680;2024-03-22T00:04:15;19.43;;;13.10;;
297;SDS011;133;49.626;9.680;2024-03-22T00:06:41;23.03;;;13.80;;
297;SDS011;133;49.626;9.680;2024-03-22T00:09:07;19.97;;;13.47;;
297;SDS011;133;49.626;9.680;2024-03-22T00:11:33;19.70;;;12.57;;
297;SDS011;133;49.626;9.680;2024-03-22T00:13:59;22.43;;;13.60;;
297;SDS011;133;49.626;9.680;2024-03-22T00:16:26;21.97;;;13.37;;
297;SDS011;133;49.626;9.680;2024-03-22T00:18:52;21.30;;;13.90;;
297;SDS011;133;49.626;9.680;2024-03-22T00:21:17;19.80;;;13.93;;
297;SDS011;133;49.626;9.680;2024-03-22T00:23:43;22.50;;;13.33;;
297;SDS011;133;49.626;9.680;2024-03-22T00:26:09;21.13;;;13.73;;
297;SDS011;133;49.626;9.680;2024-03-22T00:28:35;19.70;;;13.13;;
297;SDS011;133;49.626;9.680;2024-03-22T00:31:01;17.57;;;12.17;;
297;SDS011;133;49.626;9.680;2024-03-22T00:33:26;19.90;;;12.97;;
297;SDS011;133;49.626;9.680;2024-03-22T00:35:52;21.77;;;13.60;;
297;SDS011;133;49.626;9.680;2024-03-22T00:38:17;18.97;;;12.43;;
297;SDS011;133;49.626;9.680;2024-03-22T00:40:43;19.87;;;13.40;;
297;SDS011;133;49.626;9.680;2024-03-22T00:43:09;19.53;;;13.13;;
297;SDS011;133;49.626;9.680;2024-03-22T00:45:34;18.37;;;12.97;;
297;SDS011;133;49.626;9.680;2024-03-22T00:48:00;19.60;;;13.23;;
297;SDS011;133;49.626;9.680;2024-03-22T00:50:26;21.40;;;13.50;;
297;SDS011;133;49.626;9.680;2024-03-22T00:52:54;22.57;;;13.03;;
297;SDS011;133;49.626;9.680;2024-03-22T00:55:23;18.13;;;12.40;;
297;SDS011;133;49.626;9.680;2024-03-22T00:57:49;19.23;;;13.17;;
297;SDS011;133;49.626;9.680;2024-03-22T01:00:15;19.43;;;12.90;;
297;SDS011;133;49.626;9.680;2024-03-22T01:02:41;19.97;;;13.10;;
297;SDS011;133;49.626;9.680;2024-03-22T01:05:07;20.40;;;13.53;;
297;SDS011;133;49.626;9.680;2024-03-22T01:07:33;20.00;;;13.00;;
297;SDS011;133;49.626;9.680;2024-03-22T01:09:59;19.00;;;12.70;;
297;SDS011;133;49.626;9.680;2024-03-22T01:12:25;19.30;;;13.33;;
297;SDS011;133;49.626;9.680;2024-03-22T01:14:50;19.70;;;13.50;;
297;SDS011;133;49.626;9.680;2024-03-22T01:17:16;22.47;;;13.47;;
297;SDS011;133;49.626;9.680;2024-03-22T01:19:42;20.30;;;13.03;;
297;SDS011;133;49.626;9.680;2024-03-22T01:22:07;18.90;;;11.97;;
297;SDS011;133;49.626;9.680;2024-03-22T01:24:33;21.60;;;14.07;;
297;SDS011;133;49.626;9.680;2024-03-22T01:26:59;17.93;;;13.07;;
297;SDS011;133;49.626;9.680;2024-03-22T01:29:24;18.93;;;12.83;;
297;SDS011;133;49.626;9.680;2024-03-22T01:31:50;23.10;;;14.40;;
297;SDS011;133;49.626;9.680;2024-03-22T01:34:15;21.43;;;13.63;;
297;SDS011;133;49.626;9.680;2024-03-22T01:36:41;20.17;;;12.90;;
297;SDS011;133;49.626;9.680;2024-03-22T01:39:07;19.97;;;13.33;;
297;SDS011;133;49.626;9.680;2024-03-22T01:41:32;19.73;;;12.40;;
297;SDS011;133;49.626;9.680;2024-03-22T01:43:58;25.10;;;13.87;;
297;SDS011;133;49.626;9.680;2024-03-22T01:46:24;19.40;;;12.53;;
297;SDS011;133;49.626;9.680;2024-03-22T01:48:50;19.70;;;13.37;;
297;SDS011;133;49.626;9.680;2024-03-22T01:51:16;22.20;;;13.03;;
297;SDS011;133;49.626;9.680;2024-03-22T01:53:43;16.60;;;12.27;;
297;SDS011;133;49.626;9.680;2024-03-22T01:56:08;20.80;;;13.37;;
297;SDS011;133;49.626;9.680;2024-03-22T01:58:35;23.43;;;14.73;;
297;SDS011;133;49.626;9.680;2024-03-22T02:01:01;21.73;;;13.90;;
297;SDS011;133;49.626;9.680;2024-03-22T02:03:27;18.83;;;12.73;;
297;SDS011;133;49.626;9.680;2024-03-22T02:05:52;18.13;;;12.13;;
297;SDS011;133;49.626;9.680;2024-03-22T02:08:18;19.70;;;13.00;;
297;SDS011;133;49.626;9.680;2024-03-22T02:10:44;21.17;;;12.80;;
297;SDS011;133;49.626;9.680;2024-03-22T02:13:10;22.10;;;13.07;;
297;SDS011;133;49.626;9.680;2024-03-22T02:15:36;19.90;;;13.77;;
297;SDS011;133;49.626;9.680;2024-03-22T02:18:01;20.03;;;13.50;;
297;SDS011;133;49.626;9.680;2024-03-22T02:20:27;19.50;;;13.37;;
297;SDS011;133;49.626;9.680;2024-03-22T02:22:53;18.40;;;12.80;;
297;SDS011;133;49.626;9.680;2024-03-22T02:25:18;20.23;;;13.57;;
297;SDS011;133;49.626;9.680;2024-03-22T02:27:44;22.07;;;12.93;;
297;SDS011;133;49.626;9.680;2024-03-22T02:30:10;21.33;;;13.23;;
297;SDS011;133;49.626;9.680;2024-03-22T02:32:35;20.10;;;12.90;;
297;SDS011;133;49.626;9.680;2024-03-22T02:35:02;18.23;;;12.20;;
297;SDS011;133;49.626;9.680;2024-03-22T02:37:28;22.63;;;13.20;;
297;SDS011;133;49.626;9.680;2024-03-22T02:39:53;21.97;;;13.40;;
297;SDS011;133;49.626;9.680;2024-03-22T02:42:19;22.53;;;14.00;;
297;SDS011;133;49.626;9.680;2024-03-22T02:44:45;21.27;;;14.57;;
297;SDS011;133;49.626;9.680;2024-03-22T02:47:10;20.90;;;13.10;;
297;SDS011;133;49.626;9.680;2024-03-22T02:49:38;21.77;;;12.80;;
297;SDS011;133;49.626;9.680;2024-03-22T02:52:04;20.83;;;13.60;;
297;SDS011;133;49.626;9.680;2024-03-22T02:54:30;22.90;;;13.70;;
297;SDS011;133;49.626;9.680;2024-03-22T02:56:55;18.93;;;12.77;;
297;SDS011;133;49.626;9.680;2024-03-22T02:59:21;19.20;;;13.43;;
297;SDS011;133;49.626;9.680;2024-03-22T03:01:50;17.47;;;12.20;;
297;SDS011;133;49.626;9.680;2024-03-22T03:04:15;18.60;;;12.07;;
297;SDS011;133;49.626;9.680;2024-03-22T03:06:41;20.70;;;12.40;;
297;SDS011;133;49.626;9.680;2024-03-22T03:09:07;21.63;;;13.30;;
297;SDS011;133;49.626;9.680;2024-03-22T03:11:33;22.60;;;13.87;;
297;SDS011;133;49.626;9.680;2024-03-22T03:13:58;17.93;;;12.60;;
297;SDS011;133;49.626;9.680;2024-03-22T03:16:24;20.03;;;12.97;;
297;SDS011;133;49.626;9.680;2024-03-22T03:18:50;20.60;;;13.60;;
297;SDS011;133;49.626;9.680;2024-03-22T03:21:15;18.20;;;12.80;;
297;SDS011;133;49.626;9.680;2024-03-22T03:23:41;21.93;;;14.50;;
297;SDS011;133;49.626;9.680;2024-03-22T03:26:07;19.97;;;13.27;;
297;SDS011;133;49.626;9.680;2024-03-22T03:28:32;22.23;;;13.40;;
297;SDS011;133;49.626;9.680;2024-03-22T03:30:58;21.07;;;14.17;;
297;SDS011;133;49.626;9.680;2024-03-22T03:33:23;24.83;;;13.40;;
297;SDS011;133;49.626;9.680;2024-03-22T03:35:49;22.67;;;13.00;;
297;SDS011;133;49.626;9.680;2024-03-22T03:38:15;19.00;;;12.03;;
297;SDS011;133;49.626;9.680;2024-03-22T03:40:40;20.50;;;13.30;;
297;SDS011;133;49.626;9.680;2024-03-22T03:43:06;22.70;;;13.50;;
297;SDS011;133;49.626;9.680;2024-03-22T03:45:31;21.97;;;13.83;;
297;SDS011;133;49.626;9.680;2024-03-22T03:47:57;20.87;;;13.53;;
297;SDS011;133;49.626;9.680;2024-03-22T03:50:23;20.50;;;13.17;;
297;SDS011;133;49.626;9.680;2024-03-22T03:52:48;20.73;;;13.13;;
297;SDS011;133;49.626;9.680;2024-03-22T03:55:14;20.17;;;12.73;;
297;SDS011;133;49.626;9.680;2024-03-22T03:57:40;23.80;;;13.60;;
297;SDS011;133;49.626;9.680;2024-03-22T04:00:06;18.70;;;12.37;;
297;SDS011;133;49.626;9.680;2024-03-22T04:02:32;22.83;;;13.00;;
297;SDS011;133;49.626;9.680;2024-03-22T04:04:57;21.77;;;12.33;;
297;SDS011;133;49.626;9.680;2024-03-22T04:07:23;19.67;;;12.47;;
297;SDS011;133;49.626;9.680;2024-03-22T04:09:49;18.70;;;12.63;;
297;SDS011;133;49.626;9.680;2024-03-22T04:12:14;20.23;;;12.27;;
297;SDS011;133;49.626;9.680;2024-03-22T04:14:40;19.03;;;11.93;;
297;SDS011;133;49.626;9.680;2024-03-22T04:17:06;21.00;;;12.20;;
297;SDS011;133;49.626;9.680;2024-03-22T04:19:31;17.50;;;12.47;;
297;SDS011;133;49.626;9.680;2024-03-22T04:21:57;19.67;;;13.20;;
297;SDS011;133;49.626;9.680;2024-03-22T04:24:22;21.03;;;12.53;;
297;SDS011;133;49.626;9.680;2024-03-22T04:26:48;20.27;;;12.57;;
297;SDS011;133;49.626;9.680;2024-03-22T04:29:13;19.13;;;12.33;;
297;SDS011;133;49.626;9.680;2024-03-22T04:31:39;20.20;;;12.53;;
297;SDS011;133;49.626;9.680;2024-03-22T04:34:05;17.97;;;11.70;;
297;SDS011;133;49.626;9.680;2024-03-22T04:36:32;17.40;;;11.67;;
297;SDS011;133;49.626;9.680;2024-03-22T04:38:58;17.97;;;12.03;;
297;SDS011;133;49.626;9.680;2024-03-22T04:41:24;18.57;;;12.93;;
297;SDS011;133;49.626;9.680;2024-03-22T04:43:49;19.13;;;13.13;;
297;SDS011;133;49.626;9.680;2024-03-22T04:46:15;17.57;;;11.73;;
297;SDS011;133;49.626;9.680;2024-03-22T04:48:40;20.37;;;12.73;;
297;SDS011;133;49.626;9.680;2024-03-22T04:51:06;18.40;;;11.60;;
297;SDS011;133;49.626;9.680;2024-03-22T04:53:32;18.90;;;12.10;;
297;SDS011;133;49.626;9.680;2024-03-22T04:55:57;20.70;;;12.00;;
297;SDS011;133;49.626;9.680;2024-03-22T04:58:23;18.20;;;12.70;;
297;SDS011;133;49.626;9.680;2024-03-22T05:00:49;19.60;;;12.07;;
297;SDS011;133;49.626;9.680;2024-03-22T05:03:15;17.20;;;12.23;;
297;SDS011;133;49.626;9.680;2024-03-22T05:05:42;18.23;;;12.80;;
297;SDS011;133;49.626;9.680;2024-03-22T05:08:08;18.93;;;12.83;;
297;SDS011;133;49.626;9.680;2024-03-22T05:10:34;24.00;;;16.90;;
297;SDS011;133;49.626;9.680;2024-03-22T05:13:00;22.00;;;15.63;;
297;SDS011;133;49.626;9.680;2024-03-22T05:15:26;18.00;;;13.47;;
297;SDS011;133;49.626;9.680;2024-03-22T05:17:53;23.70;;;13.10;;
297;SDS011;133;49.626;9.680;2024-03-22T05:20:19;19.50;;;14.30;;
297;SDS011;133;49.626;9.680;2024-03-22T05:22:45;23.67;;;15.87;;
297;SDS011;133;49.626;9.680;2024-03-22T05:25:11;23.93;;;17.40;;
297;SDS011;133;49.626;9.680;2024-03-22T05:27:38;21.87;;;16.10;;
297;SDS011;133;49.626;9.680;2024-03-22T05:30:03;20.40;;;14.30;;
297;SDS011;133;49.626;9.680;2024-03-22T05:32:29;22.53;;;15.27;;
297;SDS011;133;49.626;9.680;2024-03-22T05:34:55;21.43;;;14.43;;
297;SDS011;133;49.626;9.680;2024-03-22T05:37:21;20.23;;;12.67;;
297;SDS011;133;49.626;9.680;2024-03-22T05:39:47;21.07;;;13.90;;
297;SDS011;133;49.626;9.680;2024-03-22T05:42:13;20.97;;;13.67;;
297;SDS011;133;49.626;9.680;2024-03-22T05:44:39;18.67;;;12.23;;
297;SDS011;133;49.626;9.680;2024-03-22T05:47:05;19.03;;;13.03;;
297;SDS011;133;49.626;9.680;2024-03-22T05:49:31;18.37;;;12.60;;
297;SDS011;133;49.626;9.680;2024-03-22T05:51:56;19.83;;;12.10;;
297;SDS011;133;49.626;9.680;2024-03-22T05:54:22;17.50;;;13.10;;
297;SDS011;133;49.626;9.680;2024-03-22T05:56:47;21.33;;;13.67;;
297;SDS011;133;49.626;9.680;2024-03-22T05:59:13;23.33;;;13.47;;
297;SDS011;133;49.626;9.680;2024-03-22T06:01:39;18.20;;;11.70;;
297;SDS011;133;49.626;9.680;2024-03-22T06:04:05;15.80;;;10.97;;
297;SDS011;133;49.626;9.680;2024-03-22T06:06:39;15.70;;;10.20;;
297;SDS011;133;49.626;9.680;2024-03-22T06:09:05;16.40;;;10.40;;
297;SDS011;133;49.626;9.680;2024-03-22T06:11:34;16.83;;;11.27;;
297;SDS011;133;49.626;9.680;2024-03-22T06:13:59;20.53;;;11.77;;
297;SDS011;133;49.626;9.680;2024-03-22T06:16:25;18.50;;;11.40;;
297;SDS011;133;49.626;9.680;2024-03-22T06:18:51;21.33;;;13.47;;
297;SDS011;133;49.626;9.680;2024-03-22T06:21:16;19.10;;;12.40;;
297;SDS011;133;49.626;9.680;2024-03-22T06:23:48;20.27;;;12.70;;
297;SDS011;133;49.626;9.680;2024-03-22T06:26:14;21.30;;;13.70;;
297;SDS011;133;49.626;9.680;2024-03-22T06:28:40;28.60;;;14.83;;
297;SDS011;133;49.626;9.680;2024-03-22T06:31:06;21.57;;;13.90;;
297;SDS011;133;49.626;9.680;2024-03-22T06:33:31;19.87;;;13.23;;
297;SDS011;133;49.626;9.680;2024-03-22T06:35:57;29.47;;;17.07;;
297;SDS011;133;49.626;9.680;2024-03-22T06:38:22;24.50;;;13.70;;
297;SDS011;133;49.626;9.680;2024-03-22T06:40:48;18.97;;;12.60;;
297;SDS011;133;49.626;9.680;2024-03-22T06:43:14;23.13;;;17.53;;
297;SDS011;133;49.626;9.680;2024-03-22T06:45:39;25.50;;;15.40;;
297;SDS011;133;49.626;9.680;2024-03-22T06:48:05;18.70;;;13.40;;
297;SDS011;133;49.626;9.680;2024-03-22T06:50:31;14.73;;;11.03;;
297;SDS011;133;49.626;9.680;2024-03-22T06:52:56;16.67;;;11.77;;
297;SDS011;133;49.626;9.680;2024-03-22T06:55:22;17.77;;;11.80;;
297;SDS011;133;49.626;9.680;2024-03-22T06:57:48;18.40;;;12.03;;
297;SDS011;133;49.626;9.680;2024-03-22T07:00:15;16.47;;;10.80;;
297;SDS011;133;49.626;9.680;2024-03-22T07:02:41;18.60;;;12.10;;
297;SDS011;133;49.626;9.680;2024-03-22T07:05:07;20.33;;;11.50;;
297;SDS011;133;49.626;9.680;2024-03-22T07:07:36;26.40;;;13.03;;
297;SDS011;133;49.626;9.680;2024-03-22T07:10:02;19.87;;;12.10;;
297;SDS011;133;49.626;9.680;2024-03-22T07:12:28;17.60;;;11.63;;
297;SDS011;133;49.626;9.680;2024-03-22T07:14:55;17.33;;;12.00;;
297;SDS011;133;49.626;9.680;2024-03-22T07:17:21;18.27;;;12.30;;
297;SDS011;133;49.626;9.680;2024-03-22T07:19:52;17.03;;;12.40;;
297;SDS011;133;49.626;9.680;2024-03-22T07:22:18;17.97;;;11.90;;
297;SDS011;133;49.626;9.680;2024-03-22T07:24:44;19.63;;;13.00;;
297;SDS011;133;49.626;9.680;2024-03-22T07:27:10;17.00;;;11.63;;
297;SDS011;133;49.626;9.680;2024-03-22T07:29:36;22.60;;;12.60;;
297;SDS011;133;49.626;9.680;2024-03-22T07:32:02;18.77;;;12.10;;
297;SDS011;133;49.626;9.680;2024-03-22T07:34:29;15.50;;;11.10;;
297;SDS011;133;49.626;9.680;2024-03-22T07:36:55;18.83;;;11.97;;
297;SDS011;133;49.626;9.680;2024-03-22T07:39:20;18.03;;;12.07;;
297;SDS011;133;49.626;9.680;2024-03-22T07:41:46;17.07;;;11.40;;
297;SDS011;133;49.626;9.680;2024-03-22T07:44:11;18.70;;;12.93;;
297;SDS011;133;49.626;9.680;2024-03-22T07:46:37;19.37;;;14.40;;
297;SDS011;133;49.626;9.680;2024-03-22T07:49:03;17.27;;;13.40;;
297;SDS011;133;49.626;9.680;2024-03-22T07:51:29;17.73;;;12.20;;
297;SDS011;133;49.626;9.680;2024-03-22T07:53:55;17.80;;;12.20;;
297;SDS011;133;49.626;9.680;2024-03-22T07:56:21;19.50;;;12.90;;
297;SDS011;133;49.626;9.680;2024-03-22T07:58:46;16.73;;;13.47;;
297;SDS011;133;49.626;9.680;2024-03-22T08:01:12;20.83;;;13.77;;
297;SDS011;133;49.626;9.680;2024-03-22T08:03:38;20.40;;;14.70;;
297;SDS011;133;49.626;9.680;2024-03-22T08:06:03;17.47;;;13.37;;
297;SDS011;133;49.626;9.680;2024-03-22T08:08:29;17.40;;;13.50;;
297;SDS011;133;49.626;9.680;2024-03-22T08:10:55;21.87;;;14.73;;
297;SDS011;133;49.626;9.680;2024-03-22T08:13:21;18.70;;;13.43;;
297;SDS011;133;49.626;9.680;2024-03-22T08:15:46;19.10;;;14.00;;
297;SDS011;133;49.626;9.680;2024-03-22T08:18:12;19.20;;;13.93;;
297;SDS011;133;49.626;9.680;2024-03-22T08:20:38;17.53;;;13.20;;
297;SDS011;133;49.626;9.680;2024-03-22T08:23:04;19.03;;;14.00;;
297;SDS011;133;49.626;9.680;2024-03-22T08:25:30;19.50;;;14.40;;
297;SDS011;133;49.626;9.680;2024-03-22T08:27:56;19.03;;;13.80;;
297;SDS011;133;49.626;9.680;2024-03-22T08:30:23;17.47;;;12.30;;
297;SDS011;133;49.626;9.680;2024-03-22T08:32:49;20.83;;;13.70;;
297;SDS011;133;49.626;9.680;2024-03-22T08:35:14;18.60;;;12.77;;
297;SDS011;133;49.626;9.680;2024-03-22T08:37:40;16.63;;;12.03;;
297;SDS011;133;49.626;9.680;2024-03-22T08:40:06;18.03;;;13.40;;
297;SDS011;133;49.626;9.680;2024-03-22T08:42:32;17.63;;;12.50;;
297;SDS011;133;49.626;9.680;2024-03-22T08:44:58;16.53;;;12.70;;
297;SDS011;133;49.626;9.680;2024-03-22T08:47:23;13.87;;;10.60;;
297;SDS011;133;49.626;9.680;2024-03-22T08:49:49;16.40;;;11.10;;
297;SDS011;133;49.626;9.680;2024-03-22T08:52:15;19.23;;;12.00;;
297;SDS011;133;49.626;9.680;2024-03-22T08:54:40;15.70;;;12.30;;
297;SDS011;133;49.626;9.680;2024-03-22T08:57:06;13.47;;;11.27;;
297;SDS011;133;49.626;9.680;2024-03-22T08:59:32;12.27;;;10.00;;
297;SDS011;133;49.626;9.680;2024-03-22T09:01:57;17.10;;;11.40;;
297;SDS011;133;49.626;9.680;2024-03-22T09:04:24;11.77;;;9.50;;
297;SDS011;133;49.626;9.680;2024-03-22T09:06:50;13.47;;;9.43;;
297;SDS011;133;49.626;9.680;2024-03-22T09:09:16;11.47;;;8.80;;
297;SDS011;133;49.626;9.680;2024-03-22T09:11:42;11.60;;;8.30;;
297;SDS011;133;49.626;9.680;2024-03-22T09:14:08;10.80;;;8.50;;
297;SDS011;133;49.626;9.680;2024-03-22T09:16:34;11.50;;;9.30;;
297;SDS011;133;49.626;9.680;2024-03-22T09:18:59;13.93;;;8.80;;
297;SDS011;133;49.626;9.680;2024-03-22T09:21:25;9.67;;;7.50;;
297;SDS011;133;49.626;9.680;2024-03-22T09:23:51;12.20;;;9.07;;
297;SDS011;133;49.626;9.680;2024-03-22T09:26:16;10.07;;;7.83;;
297;SDS011;133;49.626;9.680;2024-03-22T09:28:42;8.60;;;7.13;;
297;SDS011;133;49.626;9.680;2024-03-22T09:31:10;10.00;;;6.70;;
297;SDS011;133;49.626;9.680;2024-03-22T09:33:36;8.50;;;7.30;;
297;SDS011;133;49.626;9.680;2024-03-22T09:36:02;7.33;;;6.30;;
297;SDS011;133;49.626;9.680;2024-03-22T09:38:28;8.53;;;6.67;;
297;SDS011;133;49.626;9.680;2024-03-22T09:40:54;7.27;;;6.33;;
297;SDS011;133;49.626;9.680;2024-03-22T09:43:22;7.90;;;6.10;;
297;SDS011;133;49.626;9.680;2024-03-22T09:45:49;8.43;;;6.40;;
297;SDS011;133;49.626;9.680;2024-03-22T09:48:16;7.17;;;6.17;;
297;SDS011;133;49.626;9.680;2024-03-22T09:50:43;8.13;;;6.80;;
297;SDS011;133;49.626;9.680;2024-03-22T09:53:10;7.23;;;6.40;;
297;SDS011;133;49.626;9.680;2024-03-22T09:55:38;8.37;;;6.33;;
297;SDS011;133;49.626;9.680;2024-03-22T09:58:08;8.73;;;6.50;;
297;SDS011;133;49.626;9.680;2024-03-22T10:00:34;6.07;;;5.60;;
297;SDS011;133;49.626;9.680;2024-03-22T10:03:00;5.10;;;4.13;;
297;SDS011;133;49.626;9.680;2024-03-22T10:05:27;7.73;;;4.83;;
297;SDS011;133;49.626;9.680;2024-03-22T10:07:53;6.00;;;4.83;;
297;SDS011;133;49.626;9.680;2024-03-22T10:10:19;5.97;;;4.50;;
297;SDS011;133;49.626;9.680;2024-03-22T10:12:46;4.70;;;4.17;;
297;SDS011;133;49.626;9.680;2024-03-22T10:15:11;5.23;;;4.13;;
297;SDS011;133;49.626;9.680;2024-03-22T10:17:38;4.30;;;4.00;;
297;SDS011;133;49.626;9.680;2024-03-22T10:20:04;4.57;;;3.87;;
297;SDS011;133;49.626;9.680;2024-03-22T10:22:37;4.37;;;4.10;;
297;SDS011;133;49.626;9.680;2024-03-22T10:25:06;5.23;;;4.30;;
297;SDS011;133;49.626;9.680;2024-03-22T10:27:32;5.73;;;4.67;;
297;SDS011;133;49.626;9.680;2024-03-22T10:29:57;6.60;;;4.87;;
297;SDS011;133;49.626;9.680;2024-03-22T10:32:23;7.90;;;5.60;;
297;SDS011;133;49.626;9.680;2024-03-22T10:34:50;5.30;;;5.00;;
297;SDS011;133;49.626;9.680;2024-03-22T10:37:16;7.83;;;4.93;;
297;SDS011;133;49.626;9.680;2024-03-22T10:39:42;8.00;;;5.50;;
297;SDS011;133;49.626;9.680;2024-03-22T10:42:09;7.03;;;6.00;;
297;SDS011;133;49.626;9.680;2024-03-22T10:44:37;5.90;;;5.60;;
297;SDS011;133;49.626;9.680;2024-03-22T10:47:03;7.20;;;5.83;;
297;SDS011;133;49.626;9.680;2024-03-22T10:49:30;9.30;;;6.23;;
297;SDS011;133;49.626;9.680;2024-03-22T10:52:03;6.00;;;5.80;;
297;SDS011;133;49.626;9.680;2024-03-22T10:54:35;6.90;;;5.63;;
297;SDS011;133;49.626;9.680;2024-03-22T10:57:06;7.10;;;5.70;;
297;SDS011;133;49.626;9.680;2024-03-22T10:59:36;7.20;;;5.63;;
297;SDS011;133;49.626;9.680;2024-03-22T11:02:03;5.50;;;5.10;;
297;SDS011;133;49.626;9.680;2024-03-22T11:04:30;6.77;;;4.67;;
297;SDS011;133;49.626;9.680;2024-03-22T11:06:56;7.27;;;5.80;;
297;SDS011;133;49.626;9.680;2024-03-22T11:09:23;7.73;;;5.37;;
297;SDS011;133;49.626;9.680;2024-03-22T11:11:53;5.83;;;5.40;;
297;SDS011;133;49.626;9.680;2024-03-22T11:14:20;7.73;;;5.63;;
297;SDS011;133;49.626;9.680;2024-03-22T11:16:46;6.63;;;5.13;;
297;SDS011;133;49.626;9.680;2024-03-22T11:19:12;7.20;;;5.20;;
297;SDS011;133;49.626;9.680;2024-03-22T11:21:38;5.50;;;5.07;;
297;SDS011;133;49.626;9.680;2024-03-22T11:24:04;5.67;;;4.97;;
297;SDS011;133;49.626;9.680;2024-03-22T11:26:31;5.70;;;5.00;;
297;SDS011;133;49.626;9.680;2024-03-22T11:28:57;6.57;;;4.80;;
297;SDS011;133;49.626;9.680;2024-03-22T11:31:23;7.43;;;4.83;;
297;SDS011;133;49.626;9.680;2024-03-22T11:33:55;6.23;;;5.20;;
297;SDS011;133;49.626;9.680;2024-03-22T11:36:22;5.73;;;4.27;;
297;SDS011;133;49.626;9.680;2024-03-22T11:38:48;6.27;;;4.30;;
297;SDS011;133;49.626;9.680;2024-03-22T11:41:16;9.60;;;5.37;;
297;SDS011;133;49.626;9.680;2024-03-22T11:43:45;5.13;;;4.40;;
297;SDS011;133;49.626;9.680;2024-03-22T11:46:12;4.60;;;4.30;;
297;SDS011;133;49.626;9.680;2024-03-22T11:48:42;6.53;;;5.00;;
297;SDS011;133;49.626;9.680;2024-03-22T11:51:09;6.40;;;4.90;;
297;SDS011;133;49.626;9.680;2024-03-22T11:53:35;5.37;;;4.90;;
297;SDS011;133;49.626;9.680;2024-03-22T11:56:01;7.03;;;5.23;;
297;SDS011;133;49.626;9.680;2024-03-22T11:58:31;6.47;;;5.73;;
297;SDS011;133;49.626;9.680;2024-03-22T12:00:57;5.83;;;5.50;;
297;SDS011;133;49.626;9.680;2024-03-22T12:03:23;7.30;;;5.60;;
297;SDS011;133;49.626;9.680;2024-03-22T12:05:48;8.03;;;5.60;;
297;SDS011;133;49.626;9.680;2024-03-22T12:08:20;6.30;;;5.37;;
297;SDS011;133;49.626;9.680;2024-03-22T12:10:45;8.73;;;5.70;;
297;SDS011;133;49.626;9.680;2024-03-22T12:13:11;5.73;;;5.10;;
297;SDS011;133;49.626;9.680;2024-03-22T12:15:36;7.90;;;6.10;;
297;SDS011;133;49.626;9.680;2024-03-22T12:18:02;8.90;;;5.93;;
297;SDS011;133;49.626;9.680;2024-03-22T12:20:28;6.67;;;5.57;;
297;SDS011;133;49.626;9.680;2024-03-22T12:22:54;5.70;;;4.90;;
297;SDS011;133;49.626;9.680;2024-03-22T12:25:20;7.53;;;5.33;;
297;SDS011;133;49.626;9.680;2024-03-22T12:27:46;8.90;;;6.40;;
297;SDS011;133;49.626;9.680;2024-03-22T12:30:12;7.13;;;6.03;;
297;SDS011;133;49.626;9.680;2024-03-22T12:32:38;9.37;;;6.00;;
297;SDS011;133;49.626;9.680;2024-03-22T12:35:04;7.70;;;6.40;;
297;SDS011;133;49.626;9.680;2024-03-22T12:37:30;8.57;;;6.30;;
297;SDS011;133;49.626;9.680;2024-03-22T12:39:56;7.53;;;6.20;;
297;SDS011;133;49.626;9.680;2024-03-22T12:42:21;7.70;;;6.53;;
297;SDS011;133;49.626;9.680;2024-03-22T12:44:47;9.47;;;6.90;;
297;SDS011;133;49.626;9.680;2024-03-22T12:47:13;9.07;;;6.93;;
297;SDS011;133;49.626;9.680;2024-03-22T12:49:39;11.30;;;5.97;;
297;SDS011;133;49.626;9.680;2024-03-22T12:52:05;6.57;;;5.77;;
297;SDS011;133;49.626;9.680;2024-03-22T12:54:31;11.57;;;6.70;;
297;SDS011;133;49.626;9.680;2024-03-22T12:56:57;8.80;;;5.93;;
297;SDS011;133;49.626;9.680;2024-03-22T12:59:23;7.73;;;6.53;;
297;SDS011;133;49.626;9.680;2024-03-22T13:01:48;7.17;;;6.47;;
297;SDS011;133;49.626;9.680;2024-03-22T13:04:14;9.13;;;6.13;;
297;SDS011;133;49.626;9.680;2024-03-22T13:06:40;8.50;;;6.20;;
297;SDS011;133;49.626;9.680;2024-03-22T13:09:05;6.77;;;5.50;;
297;SDS011;133;49.626;9.680;2024-03-22T13:11:34;7.43;;;5.30;;
297;SDS011;133;49.626;9.680;2024-03-22T13:14:00;9.83;;;5.87;;
297;SDS011;133;49.626;9.680;2024-03-22T13:16:26;7.57;;;6.00;;
297;SDS011;133;49.626;9.680;2024-03-22T13:18:52;8.70;;;6.23;;
297;SDS011;133;49.626;9.680;2024-03-22T13:21:18;7.20;;;5.60;;
297;SDS011;133;49.626;9.680;2024-03-22T13:23:44;9.47;;;5.60;;
297;SDS011;133;49.626;9.680;2024-03-22T13:26:10;5.90;;;5.60;;
297;SDS011;133;49.626;9.680;2024-03-22T13:28:35;6.00;;;5.47;;
297;SDS011;133;49.626;9.680;2024-03-22T13:31:04;7.23;;;5.60;;
297;SDS011;133;49.626;9.680;2024-03-22T13:33:33;5.03;;;4.73;;
297;SDS011;133;49.626;9.680;2024-03-22T13:36:00;6.07;;;4.90;;
297;SDS011;133;49.626;9.680;2024-03-22T13:38:26;5.83;;;4.70;;
297;SDS011;133;49.626;9.680;2024-03-22T13:40:58;7.40;;;4.93;;
297;SDS011;133;49.626;9.680;2024-03-22T13:43:25;4.80;;;4.50;;
297;SDS011;133;49.626;9.680;2024-03-22T13:45:53;9.13;;;5.23;;
297;SDS011;133;49.626;9.680;2024-03-22T13:48:19;6.03;;;5.33;;
297;SDS011;133;49.626;9.680;2024-03-22T13:50:49;5.13;;;4.50;;
297;SDS011;133;49.626;9.680;2024-03-22T13:53:22;6.47;;;4.83;;
297;SDS011;133;49.626;9.680;2024-03-22T13:55:48;5.07;;;4.33;;
297;SDS011;133;49.626;9.680;2024-03-22T13:58:15;5.93;;;4.47;;
297;SDS011;133;49.626;9.680;2024-03-22T14:00:40;8.17;;;5.10;;
297;SDS011;133;49.626;9.680;2024-03-22T14:03:06;5.43;;;5.17;;
297;SDS011;133;49.626;9.680;2024-03-22T14:05:32;6.43;;;5.13;;
297;SDS011;133;49.626;9.680;2024-03-22T14:07:58;8.70;;;5.33;;
297;SDS011;133;49.626;9.680;2024-03-22T14:10:24;5.27;;;4.97;;
297;SDS011;133;49.626;9.680;2024-03-22T14:12:52;6.77;;;5.17;;
297;SDS011;133;49.626;9.680;2024-03-22T14:15:18;7.03;;;5.23;;
297;SDS011;133;49.626;9.680;2024-03-22T14:17:44;5.30;;;4.83;;
297;SDS011;133;49.626;9.680;2024-03-22T14:20:10;6.80;;;5.53;;
297;SDS011;133;49.626;9.680;2024-03-22T14:22:39;5.20;;;4.90;;
297;SDS011;133;49.626;9.680;2024-03-22T14:25:05;10.13;;;5.37;;
297;SDS011;133;49.626;9.680;2024-03-22T14:27:31;6.90;;;4.90;;
297;SDS011;133;49.626;9.680;2024-03-22T14:29:57;6.57;;;4.77;;
297;SDS011;133;49.626;9.680;2024-03-22T14:32:23;7.50;;;4.73;;
297;SDS011;133;49.626;9.680;2024-03-22T14:34:49;5.90;;;4.77;;
297;SDS011;133;49.626;9.680;2024-03-22T14:37:15;5.20;;;4.50;;
297;SDS011;133;49.626;9.680;2024-03-22T14:39:40;6.67;;;5.40;;
297;SDS011;133;49.626;9.680;2024-03-22T14:42:09;5.70;;;5.10;;
297;SDS011;133;49.626;9.680;2024-03-22T14:44:35;4.87;;;4.30;;
297;SDS011;133;49.626;9.680;2024-03-22T14:47:00;5.50;;;4.73;;
297;SDS011;133;49.626;9.680;2024-03-22T14:49:26;5.00;;;4.70;;
297;SDS011;133;49.626;9.680;2024-03-22T14:51:51;5.13;;;4.80;;
297;SDS011;133;49.626;9.680;2024-03-22T14:54:17;6.10;;;5.07;;
297;SDS011;133;49.626;9.680;2024-03-22T14:56:43;5.67;;;5.03;;
297;SDS011;133;49.626;9.680;2024-03-22T14:59:08;5.77;;;4.70;;
297;SDS011;133;49.626;9.680;2024-03-22T15:01:34;6.73;;;5.27;;
297;SDS011;133;49.626;9.680;2024-03-22T15:04:00;9.80;;;5.30;;
297;SDS011;133;49.626;9.680;2024-03-22T15:06:26;5.87;;;5.40;;
297;SDS011;133;49.626;9.680;2024-03-22T15:08:54;7.60;;;4.83;;
297;SDS011;133;49.626;9.680;2024-03-22T15:11:20;5.47;;;5.17;;
297;SDS011;133;49.626;9.680;2024-03-22T15:13:46;15.63;;;5.23;;
297;SDS011;133;49.626;9.680;2024-03-22T15:16:12;7.67;;;5.80;;
297;SDS011;133;49.626;9.680;2024-03-22T15:18:38;5.70;;;5.30;;
297;SDS011;133;49.626;9.680;2024-03-22T15:21:06;7.40;;;5.37;;